Time;durP1;ratioP1;P1;durP2;ratioP2;P2;SDS_P1;SDS_P2;PMS_P1;PMS_P2;Temp;Humidity;BMP_temperature;BMP_pressure;BME280_temperature;BME280_humidity;BME280_pressure;Samples;Min_cycle;Max_cycle;Signal;HPM_P1;HPM_P2
2023/08/26 00:00:47;;;;;;;16.10;8.47;;;18.50;99.90;;;;;;4164316;28;20219;-77
2023/08/26 00:02:50;;;;;;;16.93;8.70;;;18.50;99.90;;;;;;4161434;28;20867;-76
2023/08/26 00:04:53;;;;;;;18.20;9.23;;;18.50;99.90;;;;;;4160136;28;20226;-76
2023/08/26 00:06:55;;;;;;;21.17;9.03;;;18.50;99.90;;;;;;4160715;28;20199;-76
2023/08/26 00:08:56;;;;;;;19.50;9.40;;;18.50;99.90;;;;;;4157346;28;20208;-76
2023/08/26 00:10:59;;;;;;;17.37;8.77;;;18.50;99.90;;;;;;4158057;28;20226;-76
2023/08/26 00:13:01;;;;;;;16.87;9.67;;;18.50;99.90;;;;;;4158672;28;20717;-76
2023/08/26 00:15:03;;;;;;;21.43;9.80;;;18.60;99.90;;;;;;4162018;28;20195;-76
2023/08/26 00:17:05;;;;;;;15.30;8.93;;;18.60;99.90;;;;;;4162741;28;20790;-76
2023/08/26 00:19:09;;;;;;;15.83;8.53;;;18.60;99.90;;;;;;4160126;28;20676;-76
2023/08/26 00:21:10;;;;;;;13.73;8.57;;;18.60;99.90;;;;;;4161904;28;20305;-76
2023/08/26 00:23:12;;;;;;;13.57;8.53;;;18.60;99.90;;;;;;4160203;28;20214;-76
2023/08/26 00:25:13;;;;;;;15.80;9.53;;;18.60;99.90;;;;;;4158926;28;20269;-76
2023/08/26 00:27:15;;;;;;;16.10;8.30;;;18.60;99.90;;;;;;4156336;28;20211;-76
2023/08/26 00:29:17;;;;;;;18.97;9.17;;;18.60;99.90;;;;;;4154524;28;20303;-76
2023/08/26 00:31:18;;;;;;;14.50;9.27;;;18.60;99.90;;;;;;4160964;28;20664;-76
2023/08/26 00:33:20;;;;;;;15.77;9.57;;;18.70;99.90;;;;;;4165929;28;20199;-76
2023/08/26 00:35:23;;;;;;;13.77;9.23;;;18.60;99.90;;;;;;4160475;28;20736;-76
2023/08/26 00:37:25;;;;;;;14.80;9.73;;;18.70;99.90;;;;;;4164008;28;20256;-76
2023/08/26 00:39:27;;;;;;;12.97;8.50;;;18.70;99.90;;;;;;4164962;28;20857;-76
2023/08/26 00:41:29;;;;;;;15.07;8.67;;;18.70;99.90;;;;;;4160639;28;20207;-76
2023/08/26 00:43:31;;;;;;;13.63;8.60;;;18.70;99.90;;;;;;4163852;28;20203;-76
2023/08/26 00:45:33;;;;;;;14.27;9.23;;;18.80;99.90;;;;;;4164251;28;20604;-75
2023/08/26 00:47:37;;;;;;;16.37;9.53;;;18.80;99.90;;;;;;4162928;28;20203;-76
2023/08/26 00:49:39;;;;;;;16.23;9.27;;;18.80;99.90;;;;;;4167009;28;20226;-76
2023/08/26 00:51:42;;;;;;;21.27;10.67;;;18.80;99.90;;;;;;4152342;28;20265;-76
2023/08/26 00:53:44;;;;;;;18.23;10.83;;;18.80;99.90;;;;;;4141579;28;20259;-76
2023/08/26 00:55:47;;;;;;;16.87;9.63;;;18.80;99.90;;;;;;4139626;28;20227;-76
2023/08/26 00:57:49;;;;;;;20.50;9.80;;;18.80;99.90;;;;;;4159245;28;20272;-76
2023/08/26 00:59:50;;;;;;;17.00;9.20;;;18.80;99.90;;;;;;4158546;28;20223;-76
2023/08/26 01:01:54;;;;;;;12.87;8.53;;;18.90;99.90;;;;;;4161065;28;20564;-76
2023/08/26 01:03:56;;;;;;;13.53;8.53;;;18.80;99.90;;;;;;4160791;28;20230;-76
2023/08/26 01:05:58;;;;;;;14.30;9.40;;;18.90;99.90;;;;;;4158947;28;20206;-76
2023/08/26 01:08:03;;;;;;;17.97;10.23;;;18.90;99.90;;;;;;4158777;28;20210;-76
2023/08/26 01:10:07;;;;;;;14.23;9.70;;;18.90;99.90;;;;;;4159289;28;20321;-76
2023/08/26 01:12:18;;;;;;;13.50;8.93;;;19.00;99.90;;;;;;4156126;28;20211;-76
2023/08/26 01:14:31;;;;;;;12.50;8.40;;;18.90;99.90;;;;;;4160586;28;20200;-76
2023/08/26 01:16:35;;;;;;;14.87;9.60;;;19.00;99.90;;;;;;4155612;28;20294;-76
2023/08/26 01:18:37;;;;;;;16.93;8.97;;;19.00;99.90;;;;;;4156961;28;20257;-76
2023/08/26 01:20:39;;;;;;;18.23;9.70;;;19.10;99.90;;;;;;4157673;28;20293;-76
2023/08/26 01:22:43;;;;;;;17.73;9.67;;;19.10;99.90;;;;;;4156557;28;20210;-76
2023/08/26 01:24:46;;;;;;;109.07;12.63;;;19.10;99.90;;;;;;4159956;28;20277;-76
2023/08/26 01:26:48;;;;;;;18.23;10.30;;;19.10;99.90;;;;;;4160294;28;20196;-76
2023/08/26 01:28:51;;;;;;;21.57;10.17;;;19.00;99.90;;;;;;4166960;28;20199;-76
2023/08/26 01:30:54;;;;;;;20.80;10.90;;;19.00;99.90;;;;;;4164066;28;20261;-77
2023/08/26 01:33:03;;;;;;;16.20;10.00;;;19.00;99.90;;;;;;4154370;28;20742;-76
2023/08/26 01:35:09;;;;;;;21.20;10.87;;;19.00;99.90;;;;;;4140028;28;20215;-76
2023/08/26 01:37:12;;;;;;;22.70;10.77;;;19.10;99.90;;;;;;4153061;28;20218;-76
2023/08/26 01:39:17;;;;;;;20.77;11.70;;;19.10;99.90;;;;;;4161626;28;20207;-77
2023/08/26 01:41:21;;;;;;;20.90;11.13;;;19.10;99.90;;;;;;4159409;28;20265;-77
2023/08/26 01:43:25;;;;;;;23.47;11.33;;;19.00;99.90;;;;;;4155077;28;20253;-77
2023/08/26 01:45:27;;;;;;;16.63;10.50;;;19.10;99.90;;;;;;4155451;28;20506;-77
2023/08/26 01:47:29;;;;;;;19.17;11.03;;;19.10;99.90;;;;;;4155026;28;20208;-77
2023/08/26 01:49:31;;;;;;;81.23;13.83;;;19.00;99.90;;;;;;4161029;28;20281;-77
2023/08/26 01:51:33;;;;;;;30.93;12.43;;;19.00;99.90;;;;;;4155083;28;20204;-77
2023/08/26 01:53:35;;;;;;;26.37;12.47;;;19.00;99.90;;;;;;4158882;28;20210;-78
2023/08/26 01:55:37;;;;;;;24.43;13.07;;;19.00;99.90;;;;;;4164874;28;20902;-77
2023/08/26 01:57:41;;;;;;;21.07;11.97;;;19.00;99.90;;;;;;4164547;28;20250;-77
2023/08/26 01:59:43;;;;;;;18.63;11.97;;;19.10;99.90;;;;;;4161187;28;20228;-78
2023/08/26 02:01:44;;;;;;;22.70;12.17;;;19.10;99.90;;;;;;4165713;28;20206;-78
2023/08/26 02:03:46;;;;;;;26.70;13.20;;;19.00;99.90;;;;;;4162085;28;20223;-78
2023/08/26 02:05:48;;;;;;;26.30;12.83;;;19.10;99.90;;;;;;4162369;28;20288;-78
2023/08/26 02:07:50;;;;;;;23.63;12.87;;;19.10;99.90;;;;;;4167867;28;20215;-77
2023/08/26 02:09:52;;;;;;;28.43;14.10;;;19.10;99.90;;;;;;4161920;28;20231;-77
2023/08/26 02:11:54;;;;;;;23.47;13.03;;;19.00;99.90;;;;;;4166914;28;20207;-77
2023/08/26 02:14:00;;;;;;;26.43;12.80;;;19.10;99.90;;;;;;4162929;28;20677;-77
2023/08/26 02:16:02;;;;;;;25.40;14.23;;;19.00;99.90;;;;;;4163735;28;20265;-77
2023/08/26 02:18:05;;;;;;;29.90;13.23;;;19.10;99.90;;;;;;4161937;28;20229;-76
2023/08/26 02:20:09;;;;;;;23.87;13.47;;;19.10;99.90;;;;;;4160533;28;20311;-77
2023/08/26 02:22:11;;;;;;;22.87;13.73;;;19.10;99.90;;;;;;4159872;28;20286;-76
2023/08/26 02:24:13;;;;;;;24.43;12.30;;;19.10;99.90;;;;;;4161811;28;20210;-78
2023/08/26 02:26:14;;;;;;;24.83;12.60;;;19.10;99.90;;;;;;4164760;28;20587;-75
2023/08/26 02:28:16;;;;;;;18.83;11.40;;;19.10;99.90;;;;;;4161068;28;20708;-77
2023/08/26 02:30:20;;;;;;;19.80;11.17;;;19.10;99.90;;;;;;4167150;28;20785;-76
2023/08/26 02:32:22;;;;;;;33.63;13.30;;;19.10;99.90;;;;;;4165438;28;20946;-78
2023/08/26 02:34:23;;;;;;;28.37;12.50;;;19.00;99.90;;;;;;4163692;28;20894;-76
2023/08/26 02:36:25;;;;;;;19.57;11.10;;;19.10;99.90;;;;;;4168952;28;20272;-76
2023/08/26 02:38:27;;;;;;;17.90;10.80;;;19.10;99.90;;;;;;4159312;28;20923;-75
2023/08/26 02:40:28;;;;;;;19.53;11.80;;;19.00;99.90;;;;;;4165048;28;20227;-76
2023/08/26 02:42:29;;;;;;;24.20;12.07;;;19.10;99.90;;;;;;4161382;28;20207;-76
2023/08/26 02:44:31;;;;;;;24.60;13.17;;;19.00;99.90;;;;;;4167200;28;20226;-76
2023/08/26 02:46:35;;;;;;;20.13;11.83;;;19.10;99.90;;;;;;4162808;28;20269;-76
2023/08/26 02:48:37;;;;;;;21.50;11.80;;;19.10;99.90;;;;;;4162033;28;20215;-76
2023/08/26 02:50:38;;;;;;;20.77;12.33;;;19.10;99.90;;;;;;4167520;28;20769;-76
2023/08/26 02:52:40;;;;;;;25.83;13.03;;;19.10;99.90;;;;;;4157644;28;20208;-75
2023/08/26 02:54:42;;;;;;;25.73;13.13;;;19.10;99.90;;;;;;4161343;28;20253;-76
2023/08/26 02:56:44;;;;;;;23.97;13.13;;;19.00;99.90;;;;;;4153179;28;20209;-76
2023/08/26 02:58:45;;;;;;;25.30;13.60;;;19.00;99.90;;;;;;4155176;28;20605;-76
2023/08/26 03:00:48;;;;;;;23.43;12.73;;;19.00;99.90;;;;;;4160851;28;20712;-76
2023/08/26 03:02:51;;;;;;;25.10;13.43;;;19.00;99.90;;;;;;4155449;28;20207;-76
2023/08/26 03:04:53;;;;;;;24.27;12.43;;;19.00;99.90;;;;;;4159199;28;20593;-76
2023/08/26 03:06:54;;;;;;;28.03;13.10;;;19.00;99.90;;;;;;4155061;28;20204;-75
2023/08/26 03:08:56;;;;;;;28.60;13.37;;;19.10;99.90;;;;;;4157478;28;20207;-75
2023/08/26 03:10:59;;;;;;;26.30;12.70;;;19.00;99.90;;;;;;4155249;28;20243;-75
2023/08/26 03:13:01;;;;;;;24.00;12.27;;;19.10;99.90;;;;;;4154291;28;20199;-75
2023/08/26 03:15:03;;;;;;;31.87;13.33;;;19.10;99.90;;;;;;4153543;28;20196;-75
2023/08/26 03:17:05;;;;;;;29.00;13.27;;;19.00;99.90;;;;;;4152359;28;20552;-75
2023/08/26 03:19:08;;;;;;;27.53;12.93;;;19.00;99.90;;;;;;4163569;28;20214;-75
2023/08/26 03:21:10;;;;;;;28.87;13.10;;;19.00;99.90;;;;;;4150949;28;20224;-75
2023/08/26 03:23:12;;;;;;;28.63;13.27;;;19.00;99.90;;;;;;4155937;28;20665;-75
2023/08/26 03:25:14;;;;;;;26.47;13.20;;;18.90;99.90;;;;;;4156753;28;20225;-75
2023/08/26 03:27:16;;;;;;;32.03;15.07;;;18.90;99.90;;;;;;4158452;28;20253;-76
2023/08/26 03:29:18;;;;;;;27.83;13.50;;;18.90;99.90;;;;;;4160381;28;20265;-75
2023/08/26 03:31:20;;;;;;;27.73;12.70;;;18.90;99.90;;;;;;4159036;28;20218;-75
2023/08/26 03:33:21;;;;;;;28.57;13.53;;;18.80;99.90;;;;;;4156306;28;20215;-75
2023/08/26 03:35:24;;;;;;;24.87;12.43;;;18.90;99.90;;;;;;4155233;28;20663;-75
2023/08/26 03:37:26;;;;;;;24.80;11.40;;;18.80;99.90;;;;;;4158728;28;20770;-75
2023/08/26 03:39:28;;;;;;;25.37;11.77;;;18.70;99.90;;;;;;4154506;28;20243;-75
2023/08/26 03:41:31;;;;;;;20.37;11.70;;;18.70;99.90;;;;;;4152865;28;20297;-75
2023/08/26 03:43:33;;;;;;;21.87;11.63;;;18.60;99.90;;;;;;4157654;28;20269;-75
2023/08/26 03:45:35;;;;;;;26.07;11.03;;;18.60;99.90;;;;;;4156612;28;20235;-75
2023/08/26 03:47:37;;;;;;;30.70;13.03;;;18.50;99.90;;;;;;4152888;28;20218;-75
2023/08/26 03:49:39;;;;;;;31.10;13.37;;;18.50;99.90;;;;;;4153429;28;20281;-75
2023/08/26 03:51:42;;;;;;;27.47;12.10;;;18.50;99.90;;;;;;4153477;28;20217;-75
2023/08/26 03:53:44;;;;;;;24.37;11.40;;;18.60;99.90;;;;;;4160129;28;20238;-75
2023/08/26 03:55:46;;;;;;;35.23;12.90;;;18.60;99.90;;;;;;4161037;28;20258;-75
2023/08/26 03:57:48;;;;;;;25.80;11.73;;;18.50;99.90;;;;;;4162367;28;20207;-76
2023/08/26 03:59:50;;;;;;;23.03;10.93;;;18.60;99.90;;;;;;4155883;28;20233;-75
2023/08/26 04:01:52;;;;;;;21.67;10.23;;;18.50;99.90;;;;;;4161239;28;20693;-75
2023/08/26 04:03:54;;;;;;;28.67;11.93;;;18.50;99.90;;;;;;4158688;28;20211;-75
2023/08/26 04:05:59;;;;;;;20.13;10.90;;;18.50;99.90;;;;;;4159455;28;20231;-75
2023/08/26 04:08:03;;;;;;;24.00;11.20;;;18.50;99.90;;;;;;4160386;28;20243;-75
2023/08/26 04:10:05;;;;;;;20.43;10.00;;;18.50;99.90;;;;;;4161782;28;20705;-75
2023/08/26 04:12:08;;;;;;;26.17;10.80;;;18.40;99.90;;;;;;4164486;28;20296;-75
2023/08/26 04:14:10;;;;;;;17.40;9.00;;;18.40;99.90;;;;;;4162761;28;20280;-75
2023/08/26 04:16:12;;;;;;;14.43;9.17;;;18.40;99.90;;;;;;4165831;28;20232;-75
2023/08/26 04:18:13;;;;;;;17.83;9.40;;;18.40;99.90;;;;;;4160146;28;20706;-75
2023/08/26 04:20:15;;;;;;;15.73;9.03;;;18.40;99.90;;;;;;4161509;28;20648;-75
2023/08/26 04:22:17;;;;;;;20.47;9.37;;;18.30;99.90;;;;;;4160957;28;20222;-75
2023/08/26 04:24:20;;;;;;;24.00;9.70;;;18.30;99.90;;;;;;4147048;28;20221;-75
2023/08/26 04:26:22;;;;;;;17.30;9.23;;;18.30;99.90;;;;;;4160718;28;20244;-75
2023/08/26 04:28:24;;;;;;;15.03;8.60;;;18.30;99.90;;;;;;4163395;28;20229;-75
2023/08/26 04:30:26;;;;;;;17.77;8.83;;;18.30;99.90;;;;;;4141936;28;20241;-75
2023/08/26 04:32:28;;;;;;;17.07;8.17;;;18.20;99.90;;;;;;4161914;28;20210;-75
2023/08/26 04:34:30;;;;;;;15.83;7.63;;;18.20;99.90;;;;;;4155532;28;20218;-75
2023/08/26 04:36:31;;;;;;;16.60;8.13;;;18.20;99.90;;;;;;4162846;28;20215;-75
2023/08/26 04:38:33;;;;;;;16.30;7.67;;;18.20;99.90;;;;;;4156739;28;20280;-74
2023/08/26 04:40:37;;;;;;;13.93;7.70;;;18.20;99.90;;;;;;4161431;28;20246;-75
2023/08/26 04:42:40;;;;;;;15.40;7.97;;;18.10;99.90;;;;;;4144694;28;20245;-76
2023/08/26 04:44:45;;;;;;;18.23;8.30;;;18.10;99.90;;;;;;4161948;28;20194;-75
2023/08/26 04:46:47;;;;;;;16.03;8.50;;;18.10;99.90;;;;;;4162217;28;20596;-75
2023/08/26 04:48:49;;;;;;;17.93;7.93;;;18.10;99.90;;;;;;4158971;28;20237;-75
2023/08/26 04:50:51;;;;;;;14.73;7.57;;;18.20;99.90;;;;;;4156356;28;20230;-75
2023/08/26 04:52:53;;;;;;;19.60;8.17;;;18.10;99.90;;;;;;4150420;28;20265;-75
2023/08/26 04:54:55;;;;;;;12.67;6.90;;;18.10;99.90;;;;;;4155020;28;20263;-75
2023/08/26 04:56:58;;;;;;;16.33;7.80;;;18.10;99.90;;;;;;4149913;28;20226;-75
2023/08/26 04:59:00;;;;;;;16.70;7.90;;;18.10;99.90;;;;;;4151010;28;20615;-75
2023/08/26 05:01:01;;;;;;;14.63;7.70;;;18.10;99.90;;;;;;4154029;28;20273;-75
2023/08/26 05:03:03;;;;;;;17.40;8.30;;;18.10;99.90;;;;;;4151818;28;20644;-75
2023/08/26 05:05:06;;;;;;;14.43;7.37;;;18.10;99.90;;;;;;4154453;28;20744;-75
2023/08/26 05:07:08;;;;;;;15.40;7.37;;;18.10;99.90;;;;;;4153836;28;20309;-75
2023/08/26 05:09:11;;;;;;;14.53;7.43;;;18.10;99.90;;;;;;4152340;28;20211;-75
2023/08/26 05:11:13;;;;;;;13.03;7.10;;;18.10;99.90;;;;;;4154761;28;20207;-75
2023/08/26 05:13:16;;;;;;;12.50;6.53;;;18.00;99.90;;;;;;4150834;28;20643;-75
2023/08/26 05:15:18;;;;;;;11.63;6.50;;;18.00;99.90;;;;;;4154221;28;20225;-76
2023/08/26 05:17:20;;;;;;;12.03;6.60;;;18.00;99.90;;;;;;4154533;28;20661;-75
2023/08/26 05:19:22;;;;;;;12.97;5.97;;;18.00;99.90;;;;;;4152748;28;20230;-75
2023/08/26 05:21:24;;;;;;;10.90;6.20;;;18.00;99.90;;;;;;4152359;28;20822;-74
2023/08/26 05:23:25;;;;;;;17.07;6.40;;;18.00;99.90;;;;;;4150953;28;20211;-75
2023/08/26 05:25:27;;;;;;;12.87;6.23;;;18.00;99.90;;;;;;4153949;28;20223;-75
2023/08/26 05:27:29;;;;;;;13.43;5.83;;;18.00;99.90;;;;;;4152419;28;20287;-75
2023/08/26 05:29:33;;;;;;;10.53;5.33;;;17.90;99.90;;;;;;4152891;28;20223;-75
2023/08/26 05:31:34;;;;;;;10.33;5.13;;;17.90;99.90;;;;;;4152890;28;20577;-74
2023/08/26 05:33:36;;;;;;;10.10;4.93;;;17.90;99.90;;;;;;4152944;28;20203;-74
2023/08/26 05:35:38;;;;;;;7.80;4.80;;;17.90;99.90;;;;;;4153148;28;20205;-75
2023/08/26 05:37:44;;;;;;;7.53;4.43;;;17.90;99.90;;;;;;4152801;28;20724;-75
2023/08/26 05:39:46;;;;;;;8.10;4.40;;;17.90;99.90;;;;;;4157081;28;20223;-75
2023/08/26 05:41:48;;;;;;;8.40;4.60;;;17.80;99.90;;;;;;4157187;28;20265;-75
2023/08/26 05:43:50;;;;;;;8.23;4.40;;;17.90;99.90;;;;;;4156285;28;20218;-75
2023/08/26 05:45:56;;;;;;;8.60;4.63;;;17.80;99.90;;;;;;4155672;28;20218;-75
2023/08/26 05:47:58;;;;;;;10.27;5.10;;;17.80;99.90;;;;;;4155653;28;20206;-75
2023/08/26 05:50:00;;;;;;;9.53;4.70;;;17.80;99.90;;;;;;4156599;28;20560;-75
2023/08/26 05:52:02;;;;;;;7.23;4.80;;;17.80;99.90;;;;;;4153567;28;20292;-75
2023/08/26 05:54:05;;;;;;;7.33;4.67;;;17.80;99.90;;;;;;4160319;28;20218;-75
2023/08/26 05:56:07;;;;;;;9.90;5.70;;;17.90;99.90;;;;;;4161184;28;20679;-75
2023/08/26 05:58:09;;;;;;;12.43;5.43;;;17.90;99.90;;;;;;4161203;28;20603;-75
2023/08/26 06:00:15;;;;;;;10.10;5.97;;;17.90;99.90;;;;;;4159902;28;20285;-75
2023/08/26 06:02:17;;;;;;;13.17;5.37;;;17.90;99.90;;;;;;4162572;28;20225;-75
2023/08/26 06:04:19;;;;;;;12.77;6.20;;;17.90;99.90;;;;;;4160655;28;20219;-75
2023/08/26 06:06:21;;;;;;;10.40;5.50;;;17.90;99.90;;;;;;4159213;28;20292;-76
2023/08/26 06:08:23;;;;;;;15.63;6.80;;;18.00;99.90;;;;;;4161448;28;20226;-75
2023/08/26 06:10:25;;;;;;;11.67;6.20;;;18.00;99.90;;;;;;4162906;28;20717;-75
2023/08/26 06:12:27;;;;;;;12.33;5.40;;;18.00;99.90;;;;;;4162902;28;20222;-75
2023/08/26 06:14:29;;;;;;;10.50;6.83;;;18.00;99.90;;;;;;4161034;28;20253;-75
2023/08/26 06:16:31;;;;;;;9.37;5.90;;;18.00;99.90;;;;;;4163162;28;20207;-75
2023/08/26 06:18:38;;;;;;;9.03;5.93;;;18.10;99.90;;;;;;4159023;28;20222;-75
2023/08/26 06:20:39;;;;;;;15.50;6.83;;;18.10;99.90;;;;;;4160231;28;20759;-75
2023/08/26 06:22:42;;;;;;;11.77;6.43;;;18.20;99.90;;;;;;4161324;28;20730;-76
2023/08/26 06:24:44;;;;;;;11.47;5.97;;;18.20;99.90;;;;;;4159481;28;20306;-75
2023/08/26 06:26:45;;;;;;;14.33;6.73;;;18.20;99.90;;;;;;4165879;28;20227;-75
2023/08/26 06:28:47;;;;;;;11.47;6.13;;;18.20;99.90;;;;;;4163999;28;20246;-75
2023/08/26 06:30:48;;;;;;;14.13;6.80;;;18.20;99.90;;;;;;4159830;28;20230;-75
2023/08/26 06:32:50;;;;;;;7.93;5.63;;;18.30;99.90;;;;;;4167010;28;20260;-75
2023/08/26 06:34:54;;;;;;;11.83;6.50;;;18.20;99.90;;;;;;4164948;28;20246;-75
2023/08/26 06:36:56;;;;;;;11.27;6.17;;;18.30;99.90;;;;;;4165207;28;20885;-75
2023/08/26 06:38:58;;;;;;;11.30;6.43;;;18.40;99.90;;;;;;4160733;28;20275;-75
2023/08/26 06:41:00;;;;;;;10.73;6.53;;;18.30;99.90;;;;;;4166042;28;20243;-75
2023/08/26 06:43:03;;;;;;;13.80;6.73;;;18.40;99.90;;;;;;4146315;28;20226;-76
2023/08/26 06:45:07;;;;;;;10.10;6.37;;;18.50;99.90;;;;;;4163341;28;20231;-75
2023/08/26 06:47:10;;;;;;;12.60;7.40;;;18.50;99.90;;;;;;4160874;28;20230;-75
2023/08/26 06:49:12;;;;;;;10.03;6.67;;;18.60;99.90;;;;;;4160327;28;20214;-75
2023/08/26 06:51:16;;;;;;;17.50;7.57;;;18.70;99.90;;;;;;4155465;28;20277;-75
2023/08/26 06:53:21;;;;;;;13.97;7.67;;;18.70;99.90;;;;;;4159427;28;20203;-75
2023/08/26 06:55:23;;;;;;;12.70;7.40;;;18.70;99.90;;;;;;4153105;28;20238;-75
2023/08/26 06:57:25;;;;;;;15.63;7.27;;;18.70;99.90;;;;;;4140124;28;20919;-75
2023/08/26 06:59:27;;;;;;;12.27;7.30;;;18.80;99.90;;;;;;4155579;28;20230;-75
2023/08/26 07:01:31;;;;;;;14.17;7.27;;;18.90;99.90;;;;;;4155526;28;20218;-75
2023/08/26 07:03:33;;;;;;;13.67;7.10;;;18.90;99.90;;;;;;4158586;28;20842;-75
2023/08/26 07:05:35;;;;;;;14.10;6.80;;;18.90;99.90;;;;;;4158802;28;20203;-76
2023/08/26 07:07:39;;;;;;;10.50;6.57;;;19.00;99.90;;;;;;4156581;28;20692;-75
2023/08/26 07:09:41;;;;;;;8.60;5.73;;;18.90;99.90;;;;;;4155764;28;20223;-75
2023/08/26 07:11:43;;;;;;;16.33;7.10;;;18.90;99.90;;;;;;4161876;28;20203;-75
2023/08/26 07:13:45;;;;;;;10.70;6.43;;;19.10;99.90;;;;;;4160055;28;20665;-75
2023/08/26 07:15:47;;;;;;;13.30;6.03;;;19.00;99.90;;;;;;4159602;28;20266;-75
2023/08/26 07:17:49;;;;;;;7.77;4.70;;;19.00;99.90;;;;;;4156894;28;20203;-75
2023/08/26 07:19:51;;;;;;;7.77;4.70;;;19.00;99.90;;;;;;4156033;28;20635;-75
2023/08/26 07:21:53;;;;;;;9.03;4.50;;;19.10;99.90;;;;;;4152119;28;20208;-75
2023/08/26 07:23:57;;;;;;;7.87;4.67;;;19.10;99.90;;;;;;4159707;28;20211;-75
2023/08/26 07:25:59;;;;;;;4.57;3.63;;;19.00;99.90;;;;;;4154471;28;20258;-75
2023/08/26 07:28:01;;;;;;;6.53;3.20;;;18.90;99.90;;;;;;4157306;28;20620;-75
2023/08/26 07:30:04;;;;;;;7.30;3.67;;;18.80;99.90;;;;;;4161175;28;20227;-75
2023/08/26 07:32:06;;;;;;;5.37;3.00;;;18.80;99.90;;;;;;4150120;28;20218;-75
2023/08/26 07:34:08;;;;;;;6.80;3.30;;;18.80;99.90;;;;;;4152983;28;20211;-76
2023/08/26 07:36:10;;;;;;;15.83;2.67;;;18.90;99.90;;;;;;4156495;28;20225;-76
2023/08/26 07:38:12;;;;;;;8.10;3.10;;;18.80;99.90;;;;;;4154395;28;20217;-76
2023/08/26 07:40:16;;;;;;;3.43;2.40;;;18.80;99.90;;;;;;4159383;28;20227;-76
2023/08/26 07:42:23;;;;;;;6.53;2.60;;;18.90;99.90;;;;;;4156813;28;20847;-77
2023/08/26 07:44:25;;;;;;;3.00;2.40;;;18.90;99.90;;;;;;4151285;28;20208;-76
2023/08/26 07:46:27;;;;;;;2.33;1.93;;;19.00;99.90;;;;;;4156120;28;20261;-76
2023/08/26 07:48:28;;;;;;;6.53;2.40;;;19.00;99.90;;;;;;4150787;28;20214;-77
2023/08/26 07:50:30;;;;;;;3.27;2.10;;;19.10;99.90;;;;;;4156825;28;20300;-77
2023/08/26 07:52:32;;;;;;;3.70;1.93;;;19.10;99.90;;;;;;4132593;28;20239;-78
2023/08/26 07:54:34;;;;;;;3.27;2.20;;;19.20;99.90;;;;;;4142235;28;20212;-77
2023/08/26 07:56:37;;;;;;;3.27;1.80;;;19.20;99.90;;;;;;4163948;28;20974;-77
2023/08/26 07:58:39;;;;;;;4.53;2.10;;;19.20;99.90;;;;;;4157893;28;20238;-79
2023/08/26 08:00:42;;;;;;;3.57;2.27;;;19.10;99.90;;;;;;4163056;28;20237;-77
2023/08/26 08:02:43;;;;;;;5.00;2.33;;;19.10;99.90;;;;;;4163809;28;20209;-78
2023/08/26 08:04:46;;;;;;;5.73;2.80;;;19.00;99.90;;;;;;4164538;28;20211;-78
2023/08/26 08:06:48;;;;;;;4.10;2.93;;;19.00;99.90;;;;;;4166045;28;20287;-79
2023/08/26 08:08:50;;;;;;;7.57;3.60;;;18.90;99.90;;;;;;4159832;28;20210;-78
2023/08/26 08:10:52;;;;;;;5.57;3.70;;;18.90;99.90;;;;;;4165335;28;20641;-76
2023/08/26 08:12:54;;;;;;;7.53;4.73;;;19.00;99.90;;;;;;4163537;28;20257;-76
2023/08/26 08:14:56;;;;;;;15.47;6.93;;;19.00;99.90;;;;;;4163623;28;20297;-76
2023/08/26 08:16:58;;;;;;;16.23;7.20;;;19.10;99.90;;;;;;4162494;28;20198;-76
2023/08/26 08:19:00;;;;;;;19.27;8.57;;;19.10;99.90;;;;;;4162924;28;20758;-76
2023/08/26 08:21:01;;;;;;;28.80;12.10;;;19.10;99.90;;;;;;4165144;28;20838;-77
2023/08/26 08:23:05;;;;;;;29.83;11.60;;;19.20;99.90;;;;;;4161700;28;20207;-77
2023/08/26 08:25:08;;;;;;;28.17;11.90;;;19.20;99.90;;;;;;4161506;28;21095;-78
2023/08/26 08:27:10;;;;;;;20.50;10.43;;;19.20;99.90;;;;;;4164854;28;20238;-78
2023/08/26 08:29:13;;;;;;;23.77;11.93;;;19.20;99.90;;;;;;4159788;28;20211;-77
2023/08/26 08:31:15;;;;;;;29.90;13.33;;;19.30;99.90;;;;;;4162931;28;20270;-77
2023/08/26 08:33:17;;;;;;;50.50;17.97;;;19.40;99.90;;;;;;4166713;28;20213;-77
2023/08/26 08:35:19;;;;;;;31.60;15.47;;;19.40;99.90;;;;;;4164150;28;20209;-77
2023/08/26 08:37:21;;;;;;;41.43;16.90;;;19.50;99.90;;;;;;4163766;28;20252;-77
2023/08/26 08:39:23;;;;;;;44.43;17.40;;;19.60;99.90;;;;;;4168259;28;20288;-77
2023/08/26 08:41:25;;;;;;;40.50;17.33;;;19.60;99.90;;;;;;4165436;28;20217;-76
2023/08/26 08:43:30;;;;;;;36.80;16.30;;;19.50;99.90;;;;;;4163184;28;20252;-76
2023/08/26 08:45:34;;;;;;;31.07;15.20;;;19.60;99.90;;;;;;4157840;28;20269;-77
2023/08/26 08:47:36;;;;;;;35.50;16.53;;;19.60;99.90;;;;;;4162597;28;20219;-76
2023/08/26 08:49:39;;;;;;;31.87;14.83;;;19.70;99.90;;;;;;4163033;28;20638;-77
2023/08/26 08:51:40;;;;;;;38.77;15.30;;;19.70;99.90;;;;;;4165505;28;20206;-76
2023/08/26 08:53:46;;;;;;;26.20;13.63;;;19.60;99.90;;;;;;4163030;28;20204;-76
2023/08/26 08:55:48;;;;;;;24.37;13.33;;;19.50;99.90;;;;;;4159909;28;20321;-76
2023/08/26 08:57:52;;;;;;;28.47;14.33;;;19.60;99.90;;;;;;4163615;28;20624;-75
2023/08/26 08:59:57;;;;;;;24.23;13.50;;;19.70;99.90;;;;;;4164002;28;20767;-76
2023/08/26 09:02:00;;;;;;;21.90;11.40;;;19.70;99.90;;;;;;4166068;28;20211;-75
2023/08/26 09:04:02;;;;;;;24.17;12.33;;;19.60;99.90;;;;;;4164766;28;20257;-77
2023/08/26 09:06:04;;;;;;;20.90;12.00;;;19.60;99.90;;;;;;4165027;28;21428;-76
2023/08/26 09:08:10;;;;;;;22.30;12.50;;;19.60;99.90;;;;;;4160530;28;20222;-76
2023/08/26 09:10:12;;;;;;;24.53;14.93;;;19.60;99.90;;;;;;4156919;28;20313;-76
2023/08/26 09:12:14;;;;;;;21.97;13.93;;;19.60;99.90;;;;;;4164428;28;20203;-77
2023/08/26 09:14:16;;;;;;;17.60;13.27;;;19.70;99.90;;;;;;4167110;28;20772;-77
2023/08/26 09:16:28;;;;;;;19.03;11.80;;;19.80;99.90;;;;;;4171371;28;20256;-76
2023/08/26 09:18:31;;;;;;;21.03;10.50;;;19.90;99.90;;;;;;4163453;28;20696;-75
2023/08/26 09:20:38;;;;;;;15.13;9.53;;;19.90;99.90;;;;;;4161905;28;20215;-76
2023/08/26 09:22:40;;;;;;;16.97;9.40;;;19.90;99.90;;;;;;4164798;28;20280;-75
2023/08/26 09:24:42;;;;;;;16.17;8.83;;;20.00;99.90;;;;;;4164932;28;20215;-75
2023/08/26 09:26:58;;;;;;;15.03;9.37;;;20.00;99.90;;;;;;4165407;28;20199;-76
2023/08/26 09:29:00;;;;;;;18.00;8.63;;;20.00;99.90;;;;;;4164545;28;20221;-75
2023/08/26 09:31:03;;;;;;;13.80;8.33;;;20.10;99.90;;;;;;4167981;28;20304;-75
2023/08/26 09:33:13;;;;;;;15.63;8.03;;;20.10;99.90;;;;;;4169039;28;20211;-76
2023/08/26 09:35:17;;;;;;;13.20;8.43;;;20.10;99.90;;;;;;4168332;28;20231;-75
2023/08/26 09:37:19;;;;;;;12.57;7.40;;;20.20;99.90;;;;;;4162832;28;20210;-74
2023/08/26 09:39:22;;;;;;;10.13;7.40;;;20.10;99.90;;;;;;4164373;28;20262;-75
2023/08/26 09:41:25;;;;;;;12.43;6.90;;;20.00;99.90;;;;;;4166189;28;20247;-76
2023/08/26 09:43:27;;;;;;;13.50;6.67;;;20.00;99.90;;;;;;4168795;28;20212;-75
2023/08/26 09:45:29;;;;;;;11.90;5.37;;;20.00;99.90;;;;;;4165452;28;20205;-75
2023/08/26 09:47:37;;;;;;;10.57;6.17;;;20.00;99.90;;;;;;4165343;28;20221;-76
2023/08/26 09:49:39;;;;;;;8.20;5.00;;;20.10;99.90;;;;;;4163699;28;20308;-75
2023/08/26 09:51:48;;;;;;;10.07;5.70;;;20.10;99.90;;;;;;4163025;28;20236;-75
2023/08/26 09:53:50;;;;;;;7.87;4.80;;;20.00;99.90;;;;;;4164919;28;20275;-75
2023/08/26 09:55:53;;;;;;;9.63;5.17;;;20.10;99.90;;;;;;4171024;28;20939;-75
2023/08/26 09:57:55;;;;;;;12.10;5.00;;;20.10;99.90;;;;;;4168459;28;20209;-76
2023/08/26 09:59:57;;;;;;;8.10;5.00;;;20.00;99.90;;;;;;4163314;28;20269;-76
2023/08/26 10:02:03;;;;;;;6.00;4.90;;;19.90;99.90;;;;;;4165443;28;20228;-76
2023/08/26 10:04:08;;;;;;;9.27;5.30;;;20.00;99.90;;;;;;4162040;28;20276;-74
2023/08/26 10:06:13;;;;;;;6.57;4.70;;;20.10;99.90;;;;;;4163071;28;20223;-75
2023/08/26 10:08:17;;;;;;;10.17;5.70;;;20.20;99.90;;;;;;4166796;28;20657;-75
2023/08/26 10:10:28;;;;;;;11.87;5.20;;;20.30;99.90;;;;;;4163535;28;20237;-75
2023/08/26 10:12:41;;;;;;;11.10;5.10;;;20.30;99.90;;;;;;4168248;28;20206;-76
2023/08/26 10:14:47;;;;;;;10.10;5.17;;;20.50;99.90;;;;;;4162730;28;20210;-74
2023/08/26 10:16:50;;;;;;;7.80;4.43;;;20.60;99.90;;;;;;4167358;28;20684;-75
2023/08/26 10:18:54;;;;;;;12.53;5.63;;;20.80;99.90;;;;;;4167335;28;20630;-75
2023/08/26 10:20:57;;;;;;;9.43;4.40;;;20.80;99.90;;;;;;4164917;28;20649;-75
2023/08/26 10:23:00;;;;;;;9.50;5.03;;;20.70;99.90;;;;;;4165713;28;20210;-75
2023/08/26 10:25:04;;;;;;;8.77;4.70;;;20.70;99.90;;;;;;4162685;28;20215;-75
2023/08/26 10:27:07;;;;;;;9.83;4.77;;;20.70;99.90;;;;;;4161440;28;20215;-76
2023/08/26 10:29:10;;;;;;;9.33;5.30;;;20.60;99.90;;;;;;4164176;28;20202;-75